sensor_id;sensor_type;location;lat;lon;timestamp;temperature;humidity
70851;DHT22;58475;49.662;9.636;2022-10-28T00:00:15;12.24;98.49
70851;DHT22;58475;49.662;9.636;2022-10-28T00:02:41;12.33;98.48
70851;DHT22;58475;49.662;9.636;2022-10-28T00:05:07;12.31;98.42
70851;DHT22;58475;49.662;9.636;2022-10-28T00:07:32;12.42;98.14
70851;DHT22;58475;49.662;9.636;2022-10-28T00:09:58;12.36;98.06
70851;DHT22;58475;49.662;9.636;2022-10-28T00:12:24;12.31;98.14
70851;DHT22;58475;49.662;9.636;2022-10-28T00:14:49;12.24;98.54
70851;DHT22;58475;49.662;9.636;2022-10-28T00:17:15;12.33;98.43
70851;DHT22;58475;49.662;9.636;2022-10-28T00:19:40;12.35;98.47
70851;DHT22;58475;49.662;9.636;2022-10-28T00:22:06;12.35;98.20
70851;DHT22;58475;49.662;9.636;2022-10-28T00:24:31;12.29;98.07
70851;DHT22;58475;49.662;9.636;2022-10-28T00:26:57;12.39;98.26
70851;DHT22;58475;49.662;9.636;2022-10-28T00:29:22;12.32;97.80
70851;DHT22;58475;49.662;9.636;2022-10-28T00:31:48;12.31;97.80
70851;DHT22;58475;49.662;9.636;2022-10-28T00:34:17;12.32;97.96
70851;DHT22;58475;49.662;9.636;2022-10-28T00:36:44;12.31;97.98
70851;DHT22;58475;49.662;9.636;2022-10-28T00:39:14;12.28;98.03
70851;DHT22;58475;49.662;9.636;2022-10-28T00:41:44;12.36;98.33
70851;DHT22;58475;49.662;9.636;2022-10-28T00:47:05;12.18;98.17
70851;DHT22;58475;49.662;9.636;2022-10-28T00:49:35;12.22;98.39
70851;DHT22;58475;49.662;9.636;2022-10-28T00:52:07;12.19;98.25
70851;DHT22;58475;49.662;9.636;2022-10-28T00:54:35;12.19;98.19
70851;DHT22;58475;49.662;9.636;2022-10-28T00:57:03;12.24;98.36
70851;DHT22;58475;49.662;9.636;2022-10-28T00:59:35;12.22;98.35
70851;DHT22;58475;49.662;9.636;2022-10-28T01:02:03;12.31;98.41
70851;DHT22;58475;49.662;9.636;2022-10-28T01:04:29;12.28;98.21
70851;DHT22;58475;49.662;9.636;2022-10-28T01:06:56;12.21;98.21
70851;DHT22;58475;49.662;9.636;2022-10-28T01:09:23;12.26;98.31
70851;DHT22;58475;49.662;9.636;2022-10-28T01:14:49;12.31;97.66
70851;DHT22;58475;49.662;9.636;2022-10-28T01:22:51;12.12;98.12
70851;DHT22;58475;49.662;9.636;2022-10-28T01:31:16;11.98;98.31
70851;DHT22;58475;49.662;9.636;2022-10-28T01:34:09;12.06;98.37
70851;DHT22;58475;49.662;9.636;2022-10-28T01:36:55;12.18;97.64
70851;DHT22;58475;49.662;9.636;2022-10-28T01:39:27;12.14;97.59
70851;DHT22;58475;49.662;9.636;2022-10-28T01:47:15;12.08;97.27
70851;DHT22;58475;49.662;9.636;2022-10-28T01:49:50;12.02;97.46
70851;DHT22;58475;49.662;9.636;2022-10-28T01:52:20;11.91;97.76
70851;DHT22;58475;49.662;9.636;2022-10-28T01:54:54;11.95;97.89
70851;DHT22;58475;49.662;9.636;2022-10-28T01:57:24;11.85;97.59
70851;DHT22;58475;49.662;9.636;2022-10-28T01:59:52;11.82;97.78
70851;DHT22;58475;49.662;9.636;2022-10-28T02:02:17;11.81;98.06
70851;DHT22;58475;49.662;9.636;2022-10-28T02:04:43;11.84;97.85
70851;DHT22;58475;49.662;9.636;2022-10-28T02:07:08;11.91;97.63
70851;DHT22;58475;49.662;9.636;2022-10-28T02:12:27;11.84;97.74
70851;DHT22;58475;49.662;9.636;2022-10-28T02:15:18;11.85;97.86
70851;DHT22;58475;49.662;9.636;2022-10-28T02:20:37;11.87;97.86
70851;DHT22;58475;49.662;9.636;2022-10-28T02:26:23;11.92;97.55
70851;DHT22;58475;49.662;9.636;2022-10-28T02:32:03;11.85;98.06
70851;DHT22;58475;49.662;9.636;2022-10-28T02:34:33;11.78;97.83
70851;DHT22;58475;49.662;9.636;2022-10-28T02:37:02;11.66;97.91
70851;DHT22;58475;49.662;9.636;2022-10-28T02:39:35;11.81;97.94
70851;DHT22;58475;49.662;9.636;2022-10-28T02:42:13;11.80;97.72
70851;DHT22;58475;49.662;9.636;2022-10-28T02:44:46;11.77;97.89
70851;DHT22;58475;49.662;9.636;2022-10-28T02:47:18;11.82;98.06
70851;DHT22;58475;49.662;9.636;2022-10-28T02:49:50;11.74;97.98
70851;DHT22;58475;49.662;9.636;2022-10-28T02:52:18;11.67;97.76
70851;DHT22;58475;49.662;9.636;2022-10-28T02:54:52;11.69;98.08
70851;DHT22;58475;49.662;9.636;2022-10-28T02:57:27;11.70;98.20
70851;DHT22;58475;49.662;9.636;2022-10-28T03:00:04;11.74;98.13
70851;DHT22;58475;49.662;9.636;2022-10-28T03:02:31;11.75;98.38
70851;DHT22;58475;49.662;9.636;2022-10-28T03:04:56;11.74;98.20
70851;DHT22;58475;49.662;9.636;2022-10-28T03:07:22;11.73;97.73
70851;DHT22;58475;49.662;9.636;2022-10-28T03:09:47;11.64;97.75
70851;DHT22;58475;49.662;9.636;2022-10-28T03:12:13;11.64;97.82
70851;DHT22;58475;49.662;9.636;2022-10-28T03:14:38;11.64;97.97
70851;DHT22;58475;49.662;9.636;2022-10-28T03:17:04;11.67;97.73
70851;DHT22;58475;49.662;9.636;2022-10-28T03:19:29;11.66;97.74
70851;DHT22;58475;49.662;9.636;2022-10-28T03:21:55;11.61;97.98
70851;DHT22;58475;49.662;9.636;2022-10-28T03:24:20;11.63;97.84
70851;DHT22;58475;49.662;9.636;2022-10-28T03:26:46;11.63;97.93
70851;DHT22;58475;49.662;9.636;2022-10-28T03:29:11;11.60;97.81
70851;DHT22;58475;49.662;9.636;2022-10-28T03:31:37;11.60;97.87
70851;DHT22;58475;49.662;9.636;2022-10-28T03:34:02;11.67;97.96
70851;DHT22;58475;49.662;9.636;2022-10-28T03:36:28;11.61;97.94
70851;DHT22;58475;49.662;9.636;2022-10-28T03:38:53;11.61;98.39
70851;DHT22;58475;49.662;9.636;2022-10-28T03:41:19;11.63;97.93
70851;DHT22;58475;49.662;9.636;2022-10-28T03:43:44;11.66;97.74
70851;DHT22;58475;49.662;9.636;2022-10-28T03:46:10;11.73;97.47
70851;DHT22;58475;49.662;9.636;2022-10-28T03:48:35;11.73;97.52
70851;DHT22;58475;49.662;9.636;2022-10-28T03:51:01;11.70;97.62
70851;DHT22;58475;49.662;9.636;2022-10-28T03:53:26;11.60;97.63
70851;DHT22;58475;49.662;9.636;2022-10-28T03:55:59;11.71;97.69
70851;DHT22;58475;49.662;9.636;2022-10-28T03:58:25;11.82;97.30
70851;DHT22;58475;49.662;9.636;2022-10-28T04:00:51;11.80;97.29
70851;DHT22;58475;49.662;9.636;2022-10-28T04:03:18;11.73;97.42
70851;DHT22;58475;49.662;9.636;2022-10-28T04:05:44;11.57;97.43
70851;DHT22;58475;49.662;9.636;2022-10-28T04:08:13;11.53;97.64
70851;DHT22;58475;49.662;9.636;2022-10-28T04:10:38;11.44;97.48
70851;DHT22;58475;49.662;9.636;2022-10-28T04:13:05;11.43;97.67
70851;DHT22;58475;49.662;9.636;2022-10-28T04:15:31;11.39;97.79
70851;DHT22;58475;49.662;9.636;2022-10-28T04:17:57;11.44;98.17
70851;DHT22;58475;49.662;9.636;2022-10-28T04:20:24;11.34;98.21
70851;DHT22;58475;49.662;9.636;2022-10-28T04:22:49;11.37;98.57
70851;DHT22;58475;49.662;9.636;2022-10-28T04:25:17;11.24;98.62
70851;DHT22;58475;49.662;9.636;2022-10-28T04:27:43;11.36;98.37
70851;DHT22;58475;49.662;9.636;2022-10-28T04:30:10;11.42;98.23
70851;DHT22;58475;49.662;9.636;2022-10-28T04:32:37;11.49;98.46
70851;DHT22;58475;49.662;9.636;2022-10-28T04:35:03;11.57;98.06
70851;DHT22;58475;49.662;9.636;2022-10-28T04:37:29;11.56;97.85
70851;DHT22;58475;49.662;9.636;2022-10-28T04:39:54;11.53;98.01
70851;DHT22;58475;49.662;9.636;2022-10-28T04:42:22;11.46;98.03
70851;DHT22;58475;49.662;9.636;2022-10-28T04:44:47;11.54;97.93
70851;DHT22;58475;49.662;9.636;2022-10-28T04:47:13;11.50;97.70
70851;DHT22;58475;49.662;9.636;2022-10-28T04:49:38;11.49;97.69
70851;DHT22;58475;49.662;9.636;2022-10-28T04:52:04;11.42;98.00
70851;DHT22;58475;49.662;9.636;2022-10-28T04:54:29;11.42;98.10
70851;DHT22;58475;49.662;9.636;2022-10-28T04:56:55;11.39;97.79
70851;DHT22;58475;49.662;9.636;2022-10-28T04:59:20;11.44;97.77
70851;DHT22;58475;49.662;9.636;2022-10-28T05:01:46;11.34;98.08
70851;DHT22;58475;49.662;9.636;2022-10-28T05:04:12;11.44;98.28
70851;DHT22;58475;49.662;9.636;2022-10-28T05:06:38;11.40;98.05
70851;DHT22;58475;49.662;9.636;2022-10-28T05:09:03;11.43;98.17
70851;DHT22;58475;49.662;9.636;2022-10-28T05:11:29;11.43;98.01
70851;DHT22;58475;49.662;9.636;2022-10-28T05:13:54;11.47;97.84
70851;DHT22;58475;49.662;9.636;2022-10-28T05:16:20;11.54;97.99
70851;DHT22;58475;49.662;9.636;2022-10-28T05:18:46;11.60;97.84
70851;DHT22;58475;49.662;9.636;2022-10-28T05:21:11;11.56;97.84
70851;DHT22;58475;49.662;9.636;2022-10-28T05:23:37;11.67;97.78
70851;DHT22;58475;49.662;9.636;2022-10-28T05:26:03;11.67;97.43
70851;DHT22;58475;49.662;9.636;2022-10-28T05:28:31;11.61;97.74
70851;DHT22;58475;49.662;9.636;2022-10-28T05:30:57;11.61;97.52
70851;DHT22;58475;49.662;9.636;2022-10-28T05:33:23;11.49;97.93
70851;DHT22;58475;49.662;9.636;2022-10-28T05:35:49;11.49;98.12
70851;DHT22;58475;49.662;9.636;2022-10-28T05:38:15;11.53;98.01
70851;DHT22;58475;49.662;9.636;2022-10-28T05:40:41;11.56;97.86
70851;DHT22;58475;49.662;9.636;2022-10-28T05:43:08;11.44;97.91
70851;DHT22;58475;49.662;9.636;2022-10-28T05:45:34;11.46;97.99
70851;DHT22;58475;49.662;9.636;2022-10-28T05:47:59;11.44;98.04
70851;DHT22;58475;49.662;9.636;2022-10-28T05:50:25;11.42;97.96
70851;DHT22;58475;49.662;9.636;2022-10-28T05:52:54;11.40;98.03
70851;DHT22;58475;49.662;9.636;2022-10-28T05:55:21;11.50;97.69
70851;DHT22;58475;49.662;9.636;2022-10-28T05:57:50;11.54;97.57
70851;DHT22;58475;49.662;9.636;2022-10-28T06:00:18;11.46;97.95
70851;DHT22;58475;49.662;9.636;2022-10-28T06:02:44;11.43;98.13
70851;DHT22;58475;49.662;9.636;2022-10-28T06:05:10;11.46;98.31
70851;DHT22;58475;49.662;9.636;2022-10-28T06:07:37;11.36;98.06
70851;DHT22;58475;49.662;9.636;2022-10-28T06:10:04;11.37;98.00
70851;DHT22;58475;49.662;9.636;2022-10-28T06:12:30;11.34;98.13
70851;DHT22;58475;49.662;9.636;2022-10-28T06:14:56;11.30;98.18
70851;DHT22;58475;49.662;9.636;2022-10-28T06:17:21;11.36;98.00
70851;DHT22;58475;49.662;9.636;2022-10-28T06:19:47;11.46;97.96
70851;DHT22;58475;49.662;9.636;2022-10-28T06:22:13;11.53;97.55
70851;DHT22;58475;49.662;9.636;2022-10-28T06:24:38;11.46;97.70
70851;DHT22;58475;49.662;9.636;2022-10-28T06:27:04;11.50;97.78
70851;DHT22;58475;49.662;9.636;2022-10-28T06:29:29;11.49;97.85
70851;DHT22;58475;49.662;9.636;2022-10-28T06:31:56;11.43;97.98
70851;DHT22;58475;49.662;9.636;2022-10-28T06:34:22;11.51;97.95
70851;DHT22;58475;49.662;9.636;2022-10-28T06:36:48;11.47;98.06
70851;DHT22;58475;49.662;9.636;2022-10-28T06:39:13;11.44;98.04
70851;DHT22;58475;49.662;9.636;2022-10-28T06:41:39;11.53;97.92
70851;DHT22;58475;49.662;9.636;2022-10-28T06:44:04;11.51;97.91
70851;DHT22;58475;49.662;9.636;2022-10-28T06:46:30;11.51;97.78
70851;DHT22;58475;49.662;9.636;2022-10-28T06:48:56;11.54;97.78
70851;DHT22;58475;49.662;9.636;2022-10-28T06:51:22;11.61;97.78
70851;DHT22;58475;49.662;9.636;2022-10-28T06:53:51;11.56;97.82
70851;DHT22;58475;49.662;9.636;2022-10-28T06:56:16;11.57;97.91
70851;DHT22;58475;49.662;9.636;2022-10-28T06:58:42;11.60;97.69
70851;DHT22;58475;49.662;9.636;2022-10-28T07:01:08;11.56;97.62
70851;DHT22;58475;49.662;9.636;2022-10-28T07:03:34;11.59;97.83
70851;DHT22;58475;49.662;9.636;2022-10-28T07:06:00;11.56;97.60
70851;DHT22;58475;49.662;9.636;2022-10-28T07:08:27;11.60;97.70
70851;DHT22;58475;49.662;9.636;2022-10-28T07:10:57;11.54;97.84
70851;DHT22;58475;49.662;9.636;2022-10-28T07:13:23;11.56;97.70
70851;DHT22;58475;49.662;9.636;2022-10-28T07:15:53;11.57;97.67
70851;DHT22;58475;49.662;9.636;2022-10-28T07:18:20;11.66;97.34
70851;DHT22;58475;49.662;9.636;2022-10-28T07:20:46;12.02;96.89
70851;DHT22;58475;49.662;9.636;2022-10-28T07:23:11;12.21;96.45
70851;DHT22;58475;49.662;9.636;2022-10-28T07:25:37;12.70;95.24
70851;DHT22;58475;49.662;9.636;2022-10-28T07:28:03;13.17;93.82
70851;DHT22;58475;49.662;9.636;2022-10-28T07:30:29;12.96;94.06
70851;DHT22;58475;49.662;9.636;2022-10-28T07:32:55;13.11;93.19
70851;DHT22;58475;49.662;9.636;2022-10-28T07:35:26;13.54;91.46
70851;DHT22;58475;49.662;9.636;2022-10-28T07:37:51;13.34;92.43
70851;DHT22;58475;49.662;9.636;2022-10-28T07:40:19;13.00;93.19
70851;DHT22;58475;49.662;9.636;2022-10-28T07:42:44;12.91;94.08
70851;DHT22;58475;49.662;9.636;2022-10-28T07:45:10;12.91;93.73
70851;DHT22;58475;49.662;9.636;2022-10-28T07:47:35;12.73;94.16
70851;DHT22;58475;49.662;9.636;2022-10-28T07:50:01;12.93;94.56
70851;DHT22;58475;49.662;9.636;2022-10-28T07:52:27;13.62;92.99
70851;DHT22;58475;49.662;9.636;2022-10-28T07:54:52;13.20;93.91
70851;DHT22;58475;49.662;9.636;2022-10-28T07:57:18;13.10;93.50
70851;DHT22;58475;49.662;9.636;2022-10-28T07:59:44;13.39;93.80
70851;DHT22;58475;49.662;9.636;2022-10-28T08:02:15;13.55;92.78
70851;DHT22;58475;49.662;9.636;2022-10-28T08:04:42;13.39;92.58
70851;DHT22;58475;49.662;9.636;2022-10-28T08:07:07;13.39;93.38
70851;DHT22;58475;49.662;9.636;2022-10-28T08:09:33;13.51;93.50
70851;DHT22;58475;49.662;9.636;2022-10-28T08:11:58;13.66;93.83
70851;DHT22;58475;49.662;9.636;2022-10-28T08:14:24;13.65;93.87
70851;DHT22;58475;49.662;9.636;2022-10-28T08:16:49;13.80;93.96
70851;DHT22;58475;49.662;9.636;2022-10-28T08:19:15;13.72;94.49
70851;DHT22;58475;49.662;9.636;2022-10-28T08:21:40;13.86;93.74
70851;DHT22;58475;49.662;9.636;2022-10-28T08:24:06;14.60;92.76
70851;DHT22;58475;49.662;9.636;2022-10-28T08:26:32;15.22;90.05
70851;DHT22;58475;49.662;9.636;2022-10-28T08:28:57;15.20;89.41
70851;DHT22;58475;49.662;9.636;2022-10-28T08:31:25;14.78;90.64
70851;DHT22;58475;49.662;9.636;2022-10-28T08:33:51;14.31;90.20
70851;DHT22;58475;49.662;9.636;2022-10-28T08:36:16;14.24;91.13
70851;DHT22;58475;49.662;9.636;2022-10-28T08:38:43;13.96;91.39
70851;DHT22;58475;49.662;9.636;2022-10-28T08:44:30;13.80;92.93
70851;DHT22;58475;49.662;9.636;2022-10-28T08:49:44;13.90;93.19
70851;DHT22;58475;49.662;9.636;2022-10-28T08:55:01;13.79;93.63
70851;DHT22;58475;49.662;9.636;2022-10-28T08:57:37;13.87;93.70
70851;DHT22;58475;49.662;9.636;2022-10-28T09:00:07;13.92;93.74
70851;DHT22;58475;49.662;9.636;2022-10-28T09:02:48;13.98;93.88
70851;DHT22;58475;49.662;9.636;2022-10-28T09:05:20;14.12;93.50
70851;DHT22;58475;49.662;9.636;2022-10-28T09:07:47;14.10;93.37
70851;DHT22;58475;49.662;9.636;2022-10-28T09:10:14;14.23;93.49
70851;DHT22;58475;49.662;9.636;2022-10-28T09:18:04;14.29;94.09
70851;DHT22;58475;49.662;9.636;2022-10-28T09:23:28;14.63;93.27
70851;DHT22;58475;49.662;9.636;2022-10-28T09:37:03;15.19;91.63
70851;DHT22;58475;49.662;9.636;2022-10-28T09:39:39;15.35;90.72
70851;DHT22;58475;49.662;9.636;2022-10-28T09:42:09;15.47;91.45
70851;DHT22;58475;49.662;9.636;2022-10-28T09:47:31;15.43;90.17
70851;DHT22;58475;49.662;9.636;2022-10-28T09:50:03;15.51;91.70
70851;DHT22;58475;49.662;9.636;2022-10-28T09:52:38;16.14;89.42
70851;DHT22;58475;49.662;9.636;2022-10-28T09:55:17;16.86;87.12
70851;DHT22;58475;49.662;9.636;2022-10-28T09:57:43;17.45;85.44
70851;DHT22;58475;49.662;9.636;2022-10-28T10:00:13;17.85;84.78
70851;DHT22;58475;49.662;9.636;2022-10-28T10:02:40;17.83;84.32
70851;DHT22;58475;49.662;9.636;2022-10-28T10:05:15;17.62;84.51
70851;DHT22;58475;49.662;9.636;2022-10-28T10:07:50;18.07;84.77
70851;DHT22;58475;49.662;9.636;2022-10-28T10:10:25;18.16;83.94
70851;DHT22;58475;49.662;9.636;2022-10-28T10:12:54;17.74;82.39
70851;DHT22;58475;49.662;9.636;2022-10-28T10:15:30;17.68;84.04
70851;DHT22;58475;49.662;9.636;2022-10-28T10:18:02;17.42;84.67
70851;DHT22;58475;49.662;9.636;2022-10-28T10:20:45;17.42;84.42
70851;DHT22;58475;49.662;9.636;2022-10-28T10:23:50;17.31;85.90
70851;DHT22;58475;49.662;9.636;2022-10-28T10:26:16;17.30;86.55
70851;DHT22;58475;49.662;9.636;2022-10-28T10:28:46;17.30;86.14
70851;DHT22;58475;49.662;9.636;2022-10-28T10:31:21;17.26;86.27
70851;DHT22;58475;49.662;9.636;2022-10-28T10:33:52;17.23;85.98
70851;DHT22;58475;49.662;9.636;2022-10-28T10:36:20;16.77;88.16
70851;DHT22;58475;49.662;9.636;2022-10-28T10:38:57;17.07;87.58
70851;DHT22;58475;49.662;9.636;2022-10-28T10:41:34;16.99;87.16
70851;DHT22;58475;49.662;9.636;2022-10-28T10:44:00;17.07;88.13
70851;DHT22;58475;49.662;9.636;2022-10-28T10:46:25;17.03;88.20
70851;DHT22;58475;49.662;9.636;2022-10-28T10:49:14;17.31;86.90
70851;DHT22;58475;49.662;9.636;2022-10-28T10:51:50;18.05;84.38
70851;DHT22;58475;49.662;9.636;2022-10-28T10:54:16;18.51;82.04
70851;DHT22;58475;49.662;9.636;2022-10-28T10:56:43;18.41;82.91
70851;DHT22;58475;49.662;9.636;2022-10-28T11:01:46;18.02;84.23
70851;DHT22;58475;49.662;9.636;2022-10-28T11:04:18;18.14;83.88
70851;DHT22;58475;49.662;9.636;2022-10-28T11:06:48;17.82;84.04
70851;DHT22;58475;49.662;9.636;2022-10-28T11:09:18;17.90;83.87
70851;DHT22;58475;49.662;9.636;2022-10-28T11:11:44;18.09;83.93
70851;DHT22;58475;49.662;9.636;2022-10-28T11:16:52;18.94;81.55
70851;DHT22;58475;49.662;9.636;2022-10-28T11:19:28;18.84;81.84
70851;DHT22;58475;49.662;9.636;2022-10-28T11:24:48;19.09;81.03
70851;DHT22;58475;49.662;9.636;2022-10-28T11:27:36;19.16;80.27
70851;DHT22;58475;49.662;9.636;2022-10-28T11:30:10;19.62;80.91
70851;DHT22;58475;49.662;9.636;2022-10-28T11:35:42;19.59;80.44
70851;DHT22;58475;49.662;9.636;2022-10-28T11:44:57;19.47;80.93
70851;DHT22;58475;49.662;9.636;2022-10-28T11:47:17;19.80;78.72
70851;DHT22;58475;49.662;9.636;2022-10-28T12:00:59;20.93;77.44
70851;DHT22;58475;49.662;9.636;2022-10-28T12:06:21;21.13;75.78
70851;DHT22;58475;49.662;9.636;2022-10-28T12:14:43;22.06;74.09
70851;DHT22;58475;49.662;9.636;2022-10-28T12:17:42;22.29;72.14
70851;DHT22;58475;49.662;9.636;2022-10-28T12:20:26;22.57;70.70
70851;DHT22;58475;49.662;9.636;2022-10-28T12:22:59;22.51;70.15
70851;DHT22;58475;49.662;9.636;2022-10-28T12:25:38;22.50;72.01
70851;DHT22;58475;49.662;9.636;2022-10-28T12:31:24;22.35;73.06
70851;DHT22;58475;49.662;9.636;2022-10-28T12:34:04;22.14;73.24
70851;DHT22;58475;49.662;9.636;2022-10-28T12:36:37;22.03;73.24
70851;DHT22;58475;49.662;9.636;2022-10-28T12:44:15;21.82;74.52
70851;DHT22;58475;49.662;9.636;2022-10-28T12:49:58;21.65;76.26
70851;DHT22;58475;49.662;9.636;2022-10-28T12:52:40;21.75;75.73
70851;DHT22;58475;49.662;9.636;2022-10-28T12:57:42;22.17;73.82
70851;DHT22;58475;49.662;9.636;2022-10-28T13:02:42;22.72;72.90
70851;DHT22;58475;49.662;9.636;2022-10-28T13:05:19;22.77;72.14
70851;DHT22;58475;49.662;9.636;2022-10-28T13:08:18;22.74;74.47
70851;DHT22;58475;49.662;9.636;2022-10-28T13:11:25;22.90;72.72
70851;DHT22;58475;49.662;9.636;2022-10-28T13:14:21;23.07;74.29
70851;DHT22;58475;49.662;9.636;2022-10-28T13:21:56;23.19;72.99
70851;DHT22;58475;49.662;9.636;2022-10-28T13:26:50;23.25;71.82
70851;DHT22;58475;49.662;9.636;2022-10-28T13:29:25;23.37;72.59
70851;DHT22;58475;49.662;9.636;2022-10-28T13:31:52;23.38;73.71
70851;DHT22;58475;49.662;9.636;2022-10-28T13:34:27;23.16;72.22
70851;DHT22;58475;49.662;9.636;2022-10-28T13:37:02;22.91;73.20
70851;DHT22;58475;49.662;9.636;2022-10-28T13:44:54;22.14;77.11
70851;DHT22;58475;49.662;9.636;2022-10-28T13:47:35;22.06;76.09
70851;DHT22;58475;49.662;9.636;2022-10-28T13:52:31;21.57;76.91
70851;DHT22;58475;49.662;9.636;2022-10-28T13:54:57;21.47;78.96
70851;DHT22;58475;49.662;9.636;2022-10-28T14:00:02;21.17;81.67
70851;DHT22;58475;49.662;9.636;2022-10-28T14:02:37;21.23;80.95
70851;DHT22;58475;49.662;9.636;2022-10-28T14:05:09;21.24;80.59
70851;DHT22;58475;49.662;9.636;2022-10-28T14:07:37;21.03;81.28
70851;DHT22;58475;49.662;9.636;2022-10-28T14:12:52;20.77;82.20
70851;DHT22;58475;49.662;9.636;2022-10-28T14:15:31;20.71;82.81
70851;DHT22;58475;49.662;9.636;2022-10-28T14:20:40;20.61;82.95
70851;DHT22;58475;49.662;9.636;2022-10-28T14:26:04;20.59;83.00
70851;DHT22;58475;49.662;9.636;2022-10-28T14:49:02;19.91;88.92
70851;DHT22;58475;49.662;9.636;2022-10-28T14:51:38;19.98;88.38
70851;DHT22;58475;49.662;9.636;2022-10-28T14:54:15;19.81;89.28
70851;DHT22;58475;49.662;9.636;2022-10-28T14:56:42;19.83;89.15
70851;DHT22;58475;49.662;9.636;2022-10-28T14:59:32;19.71;89.52
70851;DHT22;58475;49.662;9.636;2022-10-28T15:02:11;19.59;89.42
70851;DHT22;58475;49.662;9.636;2022-10-28T15:04:38;19.59;88.14
70851;DHT22;58475;49.662;9.636;2022-10-28T15:07:10;19.56;88.00
70851;DHT22;58475;49.662;9.636;2022-10-28T15:09:37;19.49;87.73
70851;DHT22;58475;49.662;9.636;2022-10-28T15:12:07;19.33;86.01
70851;DHT22;58475;49.662;9.636;2022-10-28T15:14:43;19.20;86.62
70851;DHT22;58475;49.662;9.636;2022-10-28T15:17:15;19.05;87.33
70851;DHT22;58475;49.662;9.636;2022-10-28T15:19:42;19.11;87.24
70851;DHT22;58475;49.662;9.636;2022-10-28T15:22:26;19.05;87.32
70851;DHT22;58475;49.662;9.636;2022-10-28T15:25:01;19.04;87.72
70851;DHT22;58475;49.662;9.636;2022-10-28T15:27:36;18.98;87.73
70851;DHT22;58475;49.662;9.636;2022-10-28T15:30:13;18.99;87.92
70851;DHT22;58475;49.662;9.636;2022-10-28T15:32:40;18.83;89.34
70851;DHT22;58475;49.662;9.636;2022-10-28T15:38:00;18.54;90.66
70851;DHT22;58475;49.662;9.636;2022-10-28T15:40:29;18.57;90.62
70851;DHT22;58475;49.662;9.636;2022-10-28T15:42:58;18.38;91.24
70851;DHT22;58475;49.662;9.636;2022-10-28T15:45:27;18.50;90.45
70851;DHT22;58475;49.662;9.636;2022-10-28T15:47:55;18.44;90.46
70851;DHT22;58475;49.662;9.636;2022-10-28T15:50:32;18.47;90.40
70851;DHT22;58475;49.662;9.636;2022-10-28T15:55:41;18.18;91.37
70851;DHT22;58475;49.662;9.636;2022-10-28T16:00:35;18.03;91.85
70851;DHT22;58475;49.662;9.636;2022-10-28T16:03:24;17.97;92.07
70851;DHT22;58475;49.662;9.636;2022-10-28T16:05:50;17.92;92.01
70851;DHT22;58475;49.662;9.636;2022-10-28T16:08:29;17.85;92.52
70851;DHT22;58475;49.662;9.636;2022-10-28T16:10:58;17.86;92.17
70851;DHT22;58475;49.662;9.636;2022-10-28T16:16:21;17.74;92.20
70851;DHT22;58475;49.662;9.636;2022-10-28T16:18:51;17.71;92.29
70851;DHT22;58475;49.662;9.636;2022-10-28T16:21:22;17.62;92.35
70851;DHT22;58475;49.662;9.636;2022-10-28T16:23:51;17.64;92.41
70851;DHT22;58475;49.662;9.636;2022-10-28T16:26:30;17.55;92.46
70851;DHT22;58475;49.662;9.636;2022-10-28T16:28:56;17.42;92.69
70851;DHT22;58475;49.662;9.636;2022-10-28T16:31:24;17.42;92.61
70851;DHT22;58475;49.662;9.636;2022-10-28T16:33:52;17.30;92.94
70851;DHT22;58475;49.662;9.636;2022-10-28T16:36:18;17.27;92.80
70851;DHT22;58475;49.662;9.636;2022-10-28T16:38:43;17.27;92.73
70851;DHT22;58475;49.662;9.636;2022-10-28T16:41:19;17.27;92.70
70851;DHT22;58475;49.662;9.636;2022-10-28T16:43:46;17.10;93.57
70851;DHT22;58475;49.662;9.636;2022-10-28T16:46:12;17.02;93.37
70851;DHT22;58475;49.662;9.636;2022-10-28T16:48:39;16.99;93.32
70851;DHT22;58475;49.662;9.636;2022-10-28T16:53:35;16.91;93.73
70851;DHT22;58475;49.662;9.636;2022-10-28T16:56:04;16.91;93.45
70851;DHT22;58475;49.662;9.636;2022-10-28T16:58:29;16.88;93.58
70851;DHT22;58475;49.662;9.636;2022-10-28T17:00:59;16.80;93.60
70851;DHT22;58475;49.662;9.636;2022-10-28T17:03:25;16.83;93.52
70851;DHT22;58475;49.662;9.636;2022-10-28T17:05:51;16.76;93.62
70851;DHT22;58475;49.662;9.636;2022-10-28T17:08:16;16.70;93.94
70851;DHT22;58475;49.662;9.636;2022-10-28T17:10:42;16.56;93.97
70851;DHT22;58475;49.662;9.636;2022-10-28T17:13:13;16.53;94.19
70851;DHT22;58475;49.662;9.636;2022-10-28T17:15:40;16.39;94.40
70851;DHT22;58475;49.662;9.636;2022-10-28T17:18:06;16.38;94.02
70851;DHT22;58475;49.662;9.636;2022-10-28T17:20:32;16.41;93.88
70851;DHT22;58475;49.662;9.636;2022-10-28T17:22:58;16.30;94.44
70851;DHT22;58475;49.662;9.636;2022-10-28T17:25:24;16.21;94.52
70851;DHT22;58475;49.662;9.636;2022-10-28T17:27:53;16.21;94.41
70851;DHT22;58475;49.662;9.636;2022-10-28T17:30:19;16.12;95.08
70851;DHT22;58475;49.662;9.636;2022-10-28T17:32:48;16.09;95.35
70851;DHT22;58475;49.662;9.636;2022-10-28T17:35:14;16.15;95.22
70851;DHT22;58475;49.662;9.636;2022-10-28T17:37:40;16.14;94.84
70851;DHT22;58475;49.662;9.636;2022-10-28T17:40:06;16.17;94.79
70851;DHT22;58475;49.662;9.636;2022-10-28T17:42:33;16.09;94.99
70851;DHT22;58475;49.662;9.636;2022-10-28T17:44:59;16.09;94.94
70851;DHT22;58475;49.662;9.636;2022-10-28T17:47:24;16.05;95.21
70851;DHT22;58475;49.662;9.636;2022-10-28T17:49:50;16.11;95.08
70851;DHT22;58475;49.662;9.636;2022-10-28T17:52:16;16.08;95.11
70851;DHT22;58475;49.662;9.636;2022-10-28T17:54:41;15.98;95.28
70851;DHT22;58475;49.662;9.636;2022-10-28T17:57:07;15.97;95.03
70851;DHT22;58475;49.662;9.636;2022-10-28T17:59:32;15.96;95.01
70851;DHT22;58475;49.662;9.636;2022-10-28T18:01:58;15.86;94.94
70851;DHT22;58475;49.662;9.636;2022-10-28T18:04:23;15.80;95.15
70851;DHT22;58475;49.662;9.636;2022-10-28T18:06:52;15.74;94.64
70851;DHT22;58475;49.662;9.636;2022-10-28T18:09:18;15.66;95.16
70851;DHT22;58475;49.662;9.636;2022-10-28T18:11:44;15.63;95.03
70851;DHT22;58475;49.662;9.636;2022-10-28T18:14:10;15.56;95.87
70851;DHT22;58475;49.662;9.636;2022-10-28T18:16:36;15.56;95.78
70851;DHT22;58475;49.662;9.636;2022-10-28T18:19:04;15.54;95.66
70851;DHT22;58475;49.662;9.636;2022-10-28T18:21:30;15.46;95.67
70851;DHT22;58475;49.662;9.636;2022-10-28T18:23:56;15.42;95.65
70851;DHT22;58475;49.662;9.636;2022-10-28T18:26:32;15.46;95.71
70851;DHT22;58475;49.662;9.636;2022-10-28T18:28:58;15.40;95.79
70851;DHT22;58475;49.662;9.636;2022-10-28T18:31:28;15.46;95.65
70851;DHT22;58475;49.662;9.636;2022-10-28T18:33:54;15.44;95.54
70851;DHT22;58475;49.662;9.636;2022-10-28T18:36:22;15.39;95.42
70851;DHT22;58475;49.662;9.636;2022-10-28T18:38:48;15.35;95.47
70851;DHT22;58475;49.662;9.636;2022-10-28T18:41:19;15.23;95.45